PWSweather.com
Personal Weather Stations
Station Observations
PWSLORIS
The Farm At Fox Bay, Loris, SC 29569

The Farm At Fox BayLoris, SC 29569

Lat: 34.067097, Lon: -78.86907

Elevation: 108

Station Type: Davis Vantage Pro2 with 24 hr. FARS and solar

http://www.lorisweather.com

High Low Average
Temperature 66.0°F18.9°C 58.9°F14.9°C 63.2°F17.3°C
Dew Point 63.3°F17.4°C 58.1°F14.5°C 61.0°F16.1°C
Winds 5.8 mph 9.3 kmh Calm Calm 2.0 mph SSE3.2 kmh SSE
Wind Gusts 10.0 mph16.1 kmh -- 4.0 mph6.4 kmh
Humidity 98% 84% 93%
Pressure 30.04 in1017.3 mb 29.96 in1014.6 mb -
Precipitation 0.04 in1.0 mm - -
Hour Temp Dew Point Humidity Winds Wind Gusts Pressure Precip Precip Rate Daily Precip Total
12:00 AM 64.8°F18.2°C 63.3°F17.4°C 95% Calm Calm -- 29.99 in1015.6 mb 0.01 in0.3 mm 0.00 in/hr0.0 mm/hr 0.02 in0.5 mm
12:15 AM 64.7°F18.2°C 63.2°F17.3°C 95% Calm Calm -- 29.99 in1015.6 mb 0.01 in0.3 mm 0.04 in/hr1.0 mm/hr 0.03 in0.8 mm
12:30 AM 64.6°F18.1°C 63.1°F17.3°C 95% Calm Calm -- 29.98 in1015.2 mb 0.00 in0.0 mm 0.00 in/hr0.0 mm/hr 0.03 in0.8 mm
12:45 AM 64.6°F18.1°C 63.1°F17.3°C 95% Calm Calm -- 29.98 in1015.2 mb 0.00 in0.0 mm 0.00 in/hr0.0 mm/hr 0.03 in0.8 mm
01:00 AM 64.4°F18.0°C 63.2°F17.3°C 96% Calm Calm -- 29.98 in1015.2 mb 0.00 in0.0 mm 0.00 in/hr0.0 mm/hr 0.03 in0.8 mm
01:15 AM 64.3°F17.9°C 63.1°F17.3°C 96% Calm Calm -- 29.97 in1014.9 mb 0.00 in0.0 mm 0.00 in/hr0.0 mm/hr 0.03 in0.8 mm
01:30 AM 64.3°F17.9°C 63.1°F17.3°C 96% Calm Calm -- 29.96 in1014.6 mb 0.00 in0.0 mm 0.00 in/hr0.0 mm/hr 0.03 in0.8 mm
01:45 AM 64.2°F17.9°C 63.0°F17.2°C 96% Calm Calm -- 29.96 in1014.6 mb 0.00 in0.0 mm 0.00 in/hr0.0 mm/hr 0.03 in0.8 mm
02:00 AM 64.1°F17.8°C 62.9°F17.2°C 96% Calm Calm -- 29.96 in1014.6 mb 0.00 in0.0 mm 0.00 in/hr0.0 mm/hr 0.03 in0.8 mm
02:15 AM 63.9°F17.7°C 62.7°F17.1°C 96% Calm Calm -- 29.96 in1014.6 mb 0.00 in0.0 mm 0.00 in/hr0.0 mm/hr 0.03 in0.8 mm
02:30 AM 63.7°F17.6°C 62.5°F16.9°C 96% Calm Calm -- 29.96 in1014.6 mb 0.00 in0.0 mm 0.00 in/hr0.0 mm/hr 0.03 in0.8 mm
02:45 AM 63.3°F17.4°C 62.1°F16.7°C 96% Calm Calm -- 29.96 in1014.6 mb 0.00 in0.0 mm 0.00 in/hr0.0 mm/hr 0.03 in0.8 mm
03:00 AM 63.0°F17.2°C 61.8°F16.6°C 96% Calm Calm -- 29.96 in1014.6 mb 0.00 in0.0 mm 0.00 in/hr0.0 mm/hr 0.03 in0.8 mm
03:15 AM 63.0°F17.2°C 61.9°F16.6°C 96% 1.3 mph NW2.1 kmh NW 1.0 mph1.6 kmh 29.96 in1014.6 mb 0.00 in0.0 mm 0.00 in/hr0.0 mm/hr 0.03 in0.8 mm
03:30 AM 63.5°F17.5°C 62.3°F16.8°C 96% 1.3 mph NNW2.1 kmh NNW 3.0 mph4.8 kmh 29.96 in1014.6 mb 0.00 in0.0 mm 0.00 in/hr0.0 mm/hr 0.03 in0.8 mm
03:45 AM 63.6°F17.6°C 62.4°F16.9°C 96% 0.7 mph NNW1.1 kmh NNW 1.0 mph1.6 kmh 29.96 in1014.6 mb 0.00 in0.0 mm 0.00 in/hr0.0 mm/hr 0.03 in0.8 mm
04:00 AM 63.7°F17.6°C 62.8°F17.1°C 97% 1.4 mph NNE2.3 kmh NNE 3.0 mph4.8 kmh 29.96 in1014.6 mb 0.00 in0.0 mm 0.00 in/hr0.0 mm/hr 0.03 in0.8 mm
04:15 AM 63.6°F17.6°C 62.7°F17.1°C 97% 2.0 mph N3.2 kmh N 5.0 mph8.0 kmh 29.96 in1014.6 mb 0.00 in0.0 mm 0.00 in/hr0.0 mm/hr 0.03 in0.8 mm
04:30 AM 63.5°F17.5°C 62.6°F17.0°C 97% 2.9 mph NE4.7 kmh NE 5.0 mph8.0 kmh 29.97 in1014.9 mb 0.00 in0.0 mm 0.00 in/hr0.0 mm/hr 0.03 in0.8 mm
04:45 AM 63.3°F17.4°C 62.4°F16.9°C 97% 3.8 mph N6.1 kmh N 4.0 mph6.4 kmh 29.96 in1014.6 mb 0.00 in0.0 mm 0.00 in/hr0.0 mm/hr 0.03 in0.8 mm
05:00 AM 63.1°F17.3°C 62.2°F16.8°C 97% 2.8 mph N4.5 kmh N 4.0 mph6.4 kmh 29.97 in1014.9 mb 0.00 in0.0 mm 0.00 in/hr0.0 mm/hr 0.03 in0.8 mm
05:15 AM 62.9°F17.2°C 62.0°F16.7°C 97% 2.6 mph NNW4.2 kmh NNW 4.0 mph6.4 kmh 29.98 in1015.2 mb 0.00 in0.0 mm 0.00 in/hr0.0 mm/hr 0.03 in0.8 mm
05:30 AM 62.6°F17.0°C 61.7°F16.5°C 97% 1.8 mph NE2.9 kmh NE 3.0 mph4.8 kmh 29.98 in1015.2 mb 0.00 in0.0 mm 0.00 in/hr0.0 mm/hr 0.03 in0.8 mm
05:45 AM 62.4°F16.9°C 61.6°F16.4°C 97% 0.6 mph NE1.0 kmh NE 1.0 mph1.6 kmh 29.99 in1015.6 mb 0.00 in0.0 mm 0.00 in/hr0.0 mm/hr 0.03 in0.8 mm
06:00 AM 62.3°F16.8°C 61.4°F16.3°C 97% 2.1 mph NE3.4 kmh NE 5.0 mph8.0 kmh 29.99 in1015.6 mb 0.00 in0.0 mm 0.00 in/hr0.0 mm/hr 0.03 in0.8 mm
06:15 AM 61.8°F16.6°C 60.9°F16.1°C 97% 3.7 mph N6.0 kmh N 7.0 mph11.3 kmh 30.00 in1015.9 mb 0.00 in0.0 mm 0.00 in/hr0.0 mm/hr 0.03 in0.8 mm
06:30 AM 61.5°F16.4°C 60.6°F15.9°C 97% 3.2 mph N5.1 kmh N 3.0 mph4.8 kmh 30.00 in1015.9 mb 0.00 in0.0 mm 0.00 in/hr0.0 mm/hr 0.03 in0.8 mm
06:45 AM 61.0°F16.1°C 60.1°F15.6°C 97% 2.0 mph NW3.2 kmh NW 2.0 mph3.2 kmh 30.00 in1015.9 mb 0.00 in0.0 mm 0.00 in/hr0.0 mm/hr 0.03 in0.8 mm
07:00 AM 60.2°F15.7°C 59.4°F15.2°C 97% 5.0 mph N8.0 kmh N 5.0 mph8.0 kmh 30.01 in1016.3 mb 0.00 in0.0 mm 0.00 in/hr0.0 mm/hr 0.03 in0.8 mm
07:15 AM 59.8°F15.4°C 59.0°F15.0°C 97% 2.5 mph NNW4.0 kmh NNW 6.0 mph9.7 kmh 30.01 in1016.3 mb 0.00 in0.0 mm 0.00 in/hr0.0 mm/hr 0.03 in0.8 mm
07:30 AM 59.6°F15.3°C 58.7°F14.8°C 97% 2.9 mph NE4.7 kmh NE 5.0 mph8.0 kmh 30.02 in1016.6 mb 0.00 in0.0 mm 0.00 in/hr0.0 mm/hr 0.03 in0.8 mm
07:45 AM 59.5°F15.3°C 58.6°F14.8°C 97% 1.9 mph NNW3.1 kmh NNW 4.0 mph6.4 kmh 30.02 in1016.6 mb 0.00 in0.0 mm 0.00 in/hr0.0 mm/hr 0.03 in0.8 mm
08:00 AM 59.6°F15.3°C 59.0°F15.0°C 98% 3.6 mph N5.8 kmh N 6.0 mph9.7 kmh 30.02 in1016.6 mb 0.00 in0.0 mm 0.00 in/hr0.0 mm/hr 0.03 in0.8 mm
08:15 AM 59.3°F15.2°C 58.4°F14.7°C 97% 2.0 mph N3.2 kmh N 5.0 mph8.0 kmh 30.02 in1016.6 mb 0.00 in0.0 mm 0.00 in/hr0.0 mm/hr 0.03 in0.8 mm
08:30 AM 59.3°F15.2°C 58.4°F14.7°C 97% 4.4 mph N7.1 kmh N 6.0 mph9.7 kmh 30.02 in1016.6 mb 0.00 in0.0 mm 0.00 in/hr0.0 mm/hr 0.03 in0.8 mm
08:45 AM 58.9°F14.9°C 58.1°F14.5°C 97% 4.3 mph NNE6.9 kmh NNE 5.0 mph8.0 kmh 30.03 in1016.9 mb 0.00 in0.0 mm 0.00 in/hr0.0 mm/hr 0.03 in0.8 mm
09:00 AM 58.9°F14.9°C 58.1°F14.5°C 97% 2.6 mph N4.2 kmh N 5.0 mph8.0 kmh 30.03 in1016.9 mb 0.00 in0.0 mm 0.00 in/hr0.0 mm/hr 0.03 in0.8 mm
09:15 AM 59.7°F15.4°C 58.8°F14.9°C 97% 3.4 mph N5.5 kmh N 4.0 mph6.4 kmh 30.03 in1016.9 mb 0.00 in0.0 mm 0.00 in/hr0.0 mm/hr 0.03 in0.8 mm
09:30 AM 60.5°F15.8°C 59.6°F15.3°C 97% 2.3 mph NE3.7 kmh NE 3.0 mph4.8 kmh 30.03 in1016.9 mb 0.00 in0.0 mm 0.00 in/hr0.0 mm/hr 0.03 in0.8 mm
09:45 AM 60.8°F16.0°C 59.7°F15.4°C 96% 0.7 mph N1.1 kmh N 3.0 mph4.8 kmh 30.04 in1017.3 mb 0.00 in0.0 mm 0.00 in/hr0.0 mm/hr 0.03 in0.8 mm
10:00 AM 61.1°F16.2°C 60.0°F15.6°C 96% 3.1 mph N5.0 kmh N 4.0 mph6.4 kmh 30.04 in1017.3 mb 0.00 in0.0 mm 0.00 in/hr0.0 mm/hr 0.03 in0.8 mm
10:15 AM 61.5°F16.4°C 60.1°F15.6°C 95% 2.8 mph NNW4.5 kmh NNW 5.0 mph8.0 kmh 30.04 in1017.3 mb 0.00 in0.0 mm 0.00 in/hr0.0 mm/hr 0.03 in0.8 mm
10:30 AM 61.8°F16.6°C 60.1°F15.6°C 94% 1.8 mph NW2.9 kmh NW 3.0 mph4.8 kmh 30.04 in1017.3 mb 0.00 in0.0 mm 0.00 in/hr0.0 mm/hr 0.03 in0.8 mm
10:45 AM 62.2°F16.8°C 60.2°F15.7°C 93% 1.5 mph NW2.4 kmh NW 4.0 mph6.4 kmh 30.04 in1017.3 mb 0.00 in0.0 mm 0.00 in/hr0.0 mm/hr 0.03 in0.8 mm
11:00 AM 62.6°F17.0°C 60.2°F15.7°C 92% 2.6 mph NW4.2 kmh NW 6.0 mph9.7 kmh 30.04 in1017.3 mb 0.00 in0.0 mm 0.00 in/hr0.0 mm/hr 0.03 in0.8 mm
11:15 AM 63.4°F17.4°C 61.0°F16.1°C 92% 3.6 mph NE5.8 kmh NE 6.0 mph9.7 kmh 30.04 in1017.3 mb 0.00 in0.0 mm 0.00 in/hr0.0 mm/hr 0.03 in0.8 mm
11:30 AM 64.0°F17.8°C 61.0°F16.1°C 90% 1.9 mph N3.1 kmh N 2.0 mph3.2 kmh 30.03 in1016.9 mb 0.00 in0.0 mm 0.00 in/hr0.0 mm/hr 0.03 in0.8 mm
11:45 AM 64.9°F18.3°C 61.6°F16.4°C 89% 2.1 mph NE3.4 kmh NE 4.0 mph6.4 kmh 30.03 in1016.9 mb 0.00 in0.0 mm 0.00 in/hr0.0 mm/hr 0.03 in0.8 mm
12:00 PM 65.1°F18.4°C 61.4°F16.3°C 88% 3.9 mph NE6.3 kmh NE 5.0 mph8.0 kmh 30.03 in1016.9 mb 0.00 in0.0 mm 0.00 in/hr0.0 mm/hr 0.03 in0.8 mm
12:15 PM 64.9°F18.3°C 61.2°F16.2°C 88% 3.6 mph NNE5.8 kmh NNE 7.0 mph11.3 kmh 30.02 in1016.6 mb 0.00 in0.0 mm 0.00 in/hr0.0 mm/hr 0.03 in0.8 mm
12:30 PM 64.7°F18.2°C 61.1°F16.2°C 88% 0.4 mph N0.6 kmh N 1.0 mph1.6 kmh 30.03 in1016.9 mb 0.00 in0.0 mm 0.00 in/hr0.0 mm/hr 0.03 in0.8 mm
12:45 PM 64.6°F18.1°C 61.0°F16.1°C 88% 4.3 mph NNW6.9 kmh NNW 6.0 mph9.7 kmh 30.03 in1016.9 mb 0.00 in0.0 mm 0.00 in/hr0.0 mm/hr 0.03 in0.8 mm
01:00 PM 64.8°F18.2°C 61.2°F16.2°C 88% 4.0 mph NNE6.4 kmh NNE 5.0 mph8.0 kmh 30.02 in1016.6 mb 0.00 in0.0 mm 0.00 in/hr0.0 mm/hr 0.03 in0.8 mm
01:15 PM 65.0°F18.3°C 61.3°F16.3°C 88% 5.1 mph NE8.2 kmh NE 7.0 mph11.3 kmh 30.02 in1016.6 mb 0.00 in0.0 mm 0.00 in/hr0.0 mm/hr 0.03 in0.8 mm
01:30 PM 65.5°F18.6°C 61.5°F16.4°C 87% 4.6 mph NW7.4 kmh NW 7.0 mph11.3 kmh 30.01 in1016.3 mb 0.00 in0.0 mm 0.00 in/hr0.0 mm/hr 0.03 in0.8 mm
01:45 PM 65.6°F18.7°C 61.6°F16.4°C 87% 1.4 mph NE2.3 kmh NE 5.0 mph8.0 kmh 30.01 in1016.3 mb 0.01 in0.3 mm 0.04 in/hr1.0 mm/hr 0.04 in1.0 mm
02:00 PM 65.4°F18.6°C 60.7°F15.9°C 85% 5.8 mph N9.3 kmh N 10.0 mph16.1 kmh 30.00 in1015.9 mb 0.00 in0.0 mm 0.00 in/hr0.0 mm/hr 0.04 in1.0 mm
02:15 PM 66.0°F18.9°C 61.3°F16.3°C 85% 4.0 mph NE6.4 kmh NE 10.0 mph16.1 kmh 30.00 in1015.9 mb 0.00 in0.0 mm 0.00 in/hr0.0 mm/hr 0.04 in1.0 mm
02:30 PM 65.7°F18.7°C 60.7°F15.9°C 84% 4.1 mph N6.6 kmh N 6.0 mph9.7 kmh 29.99 in1015.6 mb 0.00 in0.0 mm 0.00 in/hr0.0 mm/hr 0.04 in1.0 mm
02:45 PM 65.9°F18.8°C 61.6°F16.4°C 86% 3.9 mph NNE6.3 kmh NNE 6.0 mph9.7 kmh 29.99 in1015.6 mb 0.00 in0.0 mm 0.00 in/hr0.0 mm/hr 0.04 in1.0 mm
03:00 PM 65.8°F18.8°C 61.1°F16.2°C 85% 1.5 mph ENE2.4 kmh ENE 4.0 mph6.4 kmh 29.98 in1015.2 mb 0.00 in0.0 mm 0.00 in/hr0.0 mm/hr 0.04 in1.0 mm
03:15 PM 65.9°F18.8°C 61.3°F16.3°C 85% 1.4 mph N2.3 kmh N 2.0 mph3.2 kmh 29.98 in1015.2 mb 0.00 in0.0 mm 0.00 in/hr0.0 mm/hr 0.04 in1.0 mm
03:30 PM 65.7°F18.7°C 61.4°F16.3°C 86% 4.4 mph N7.1 kmh N 6.0 mph9.7 kmh 29.99 in1015.6 mb 0.00 in0.0 mm 0.00 in/hr0.0 mm/hr 0.04 in1.0 mm
03:45 PM 65.2°F18.4°C 60.6°F15.9°C 85% 3.3 mph NE5.3 kmh NE 4.0 mph6.4 kmh 29.98 in1015.2 mb 0.00 in0.0 mm 0.00 in/hr0.0 mm/hr 0.04 in1.0 mm
04:00 PM 65.0°F18.3°C 61.0°F16.1°C 87% 2.9 mph N4.7 kmh N 4.0 mph6.4 kmh 29.98 in1015.2 mb 0.00 in0.0 mm 0.00 in/hr0.0 mm/hr 0.04 in1.0 mm
04:15 PM 64.8°F18.2°C 60.8°F16.0°C 87% 1.3 mph NE2.1 kmh NE 5.0 mph8.0 kmh 29.98 in1015.2 mb 0.00 in0.0 mm 0.00 in/hr0.0 mm/hr 0.04 in1.0 mm
04:30 PM 64.5°F18.1°C 60.5°F15.8°C 87% 3.3 mph N5.3 kmh N 5.0 mph8.0 kmh 29.98 in1015.2 mb 0.00 in0.0 mm 0.00 in/hr0.0 mm/hr 0.04 in1.0 mm
04:45 PM 64.3°F17.9°C 60.7°F15.9°C 88% 3.6 mph NE5.8 kmh NE 6.0 mph9.7 kmh 29.98 in1015.2 mb 0.00 in0.0 mm 0.00 in/hr0.0 mm/hr 0.04 in1.0 mm
05:00 PM 64.2°F17.9°C 60.6°F15.9°C 88% 4.6 mph NE7.4 kmh NE 9.0 mph14.5 kmh 29.98 in1015.2 mb 0.00 in0.0 mm 0.00 in/hr0.0 mm/hr 0.04 in1.0 mm
05:15 PM 63.9°F17.7°C 60.3°F15.7°C 88% 3.0 mph N4.8 kmh N 5.0 mph8.0 kmh 29.98 in1015.2 mb 0.00 in0.0 mm 0.00 in/hr0.0 mm/hr 0.04 in1.0 mm
05:30 PM 63.5°F17.5°C 59.9°F15.5°C 88% 1.2 mph N1.9 kmh N 3.0 mph4.8 kmh 29.98 in1015.2 mb 0.00 in0.0 mm 0.00 in/hr0.0 mm/hr 0.04 in1.0 mm
05:45 PM 63.4°F17.4°C 60.1°F15.6°C 89% 0.8 mph NE1.3 kmh NE 6.0 mph9.7 kmh 29.98 in1015.2 mb 0.00 in0.0 mm 0.00 in/hr0.0 mm/hr 0.04 in1.0 mm
06:00 PM 63.4°F17.4°C 60.1°F15.6°C 89% 0.9 mph N1.4 kmh N 2.0 mph3.2 kmh 29.98 in1015.2 mb 0.00 in0.0 mm 0.00 in/hr0.0 mm/hr 0.04 in1.0 mm
06:15 PM 63.3°F17.4°C 60.0°F15.6°C 89% 3.2 mph NNE5.1 kmh NNE 5.0 mph8.0 kmh 29.98 in1015.2 mb 0.00 in0.0 mm 0.00 in/hr0.0 mm/hr 0.04 in1.0 mm
06:30 PM 63.1°F17.3°C 59.8°F15.4°C 89% Calm Calm 3.0 mph4.8 kmh 29.98 in1015.2 mb 0.00 in0.0 mm 0.00 in/hr0.0 mm/hr 0.04 in1.0 mm
06:45 PM 62.8°F17.1°C 59.5°F15.3°C 89% 1.2 mph NW1.9 kmh NW 3.0 mph4.8 kmh 29.98 in1015.2 mb 0.00 in0.0 mm 0.00 in/hr0.0 mm/hr 0.04 in1.0 mm
07:00 PM 62.6°F17.0°C 59.6°F15.3°C 90% 0.5 mph NNE0.8 kmh NNE 1.0 mph1.6 kmh 29.98 in1015.2 mb 0.00 in0.0 mm 0.00 in/hr0.0 mm/hr 0.04 in1.0 mm
07:15 PM 62.4°F16.9°C 59.5°F15.3°C 90% 0.6 mph NE1.0 kmh NE 3.0 mph4.8 kmh 29.98 in1015.2 mb 0.00 in0.0 mm 0.00 in/hr0.0 mm/hr 0.04 in1.0 mm
07:30 PM 62.3°F16.8°C 59.3°F15.2°C 90% 0.8 mph NNE1.3 kmh NNE 4.0 mph6.4 kmh 29.98 in1015.2 mb 0.00 in0.0 mm 0.00 in/hr0.0 mm/hr 0.04 in1.0 mm
07:45 PM 62.2°F16.8°C 59.5°F15.3°C 91% 0.1 mph NE0.2 kmh NE 1.0 mph1.6 kmh 29.99 in1015.6 mb 0.00 in0.0 mm 0.00 in/hr0.0 mm/hr 0.04 in1.0 mm
08:15 PM 62.0°F16.7°C 59.1°F15.1°C 90% 1.2 mph NNE1.9 kmh NNE 4.0 mph6.4 kmh 29.99 in1015.6 mb 0.00 in0.0 mm 0.00 in/hr0.0 mm/hr 0.04 in1.0 mm
08:30 PM 62.0°F16.7°C 59.0°F15.0°C 90% Calm Calm -- 30.00 in1015.9 mb 0.00 in0.0 mm 0.00 in/hr0.0 mm/hr 0.04 in1.0 mm
08:45 PM 62.0°F16.7°C 59.0°F15.0°C 90% 1.0 mph N1.6 kmh N 3.0 mph4.8 kmh 30.00 in1015.9 mb 0.00 in0.0 mm 0.00 in/hr0.0 mm/hr 0.04 in1.0 mm
09:00 PM 61.8°F16.6°C 58.9°F14.9°C 90% 0.2 mph N0.3 kmh N 2.0 mph3.2 kmh 30.00 in1015.9 mb 0.00 in0.0 mm 0.00 in/hr0.0 mm/hr 0.04 in1.0 mm
09:15 PM 61.8°F16.6°C 59.1°F15.1°C 91% 1.2 mph NNE1.9 kmh NNE 2.0 mph3.2 kmh 30.00 in1015.9 mb 0.00 in0.0 mm 0.00 in/hr0.0 mm/hr 0.04 in1.0 mm
09:30 PM 61.6°F16.4°C 58.9°F14.9°C 91% Calm Calm 1.0 mph1.6 kmh 30.00 in1015.9 mb 0.00 in0.0 mm 0.00 in/hr0.0 mm/hr 0.04 in1.0 mm
09:45 PM 61.4°F16.3°C 59.0°F15.0°C 92% 0.3 mph NE0.5 kmh NE 1.0 mph1.6 kmh 30.00 in1015.9 mb 0.00 in0.0 mm 0.00 in/hr0.0 mm/hr 0.04 in1.0 mm
10:00 PM 61.2°F16.2°C 59.2°F15.1°C 93% Calm Calm 1.0 mph1.6 kmh 30.00 in1015.9 mb 0.00 in0.0 mm 0.00 in/hr0.0 mm/hr 0.04 in1.0 mm
10:15 PM 61.1°F16.2°C 59.0°F15.0°C 93% Calm Calm -- 30.00 in1015.9 mb 0.00 in0.0 mm 0.00 in/hr0.0 mm/hr 0.04 in1.0 mm
10:30 PM 61.0°F16.1°C 59.0°F15.0°C 93% Calm Calm -- 29.99 in1015.6 mb 0.00 in0.0 mm 0.00 in/hr0.0 mm/hr 0.04 in1.0 mm
10:45 PM 60.9°F16.1°C 59.2°F15.1°C 94% Calm Calm -- 29.99 in1015.6 mb 0.00 in0.0 mm 0.00 in/hr0.0 mm/hr 0.04 in1.0 mm
11:00 PM 60.7°F15.9°C 59.0°F15.0°C 94% 2.9 mph N4.7 kmh N 6.0 mph9.7 kmh 29.99 in1015.6 mb 0.00 in0.0 mm 0.00 in/hr0.0 mm/hr 0.03 in0.8 mm
11:15 PM 60.6°F15.9°C 58.9°F14.9°C 94% 0.6 mph NNE1.0 kmh NNE 1.0 mph1.6 kmh 29.99 in1015.6 mb 0.00 in0.0 mm 0.00 in/hr0.0 mm/hr 0.03 in0.8 mm
11:30 PM 60.5°F15.8°C 58.8°F14.9°C 94% 0.1 mph ENE0.2 kmh ENE 1.0 mph1.6 kmh 29.98 in1015.2 mb 0.00 in0.0 mm 0.00 in/hr0.0 mm/hr 0.03 in0.8 mm
11:45 PM 60.6°F15.9°C 58.8°F14.9°C 94% 0.5 mph ENE0.8 kmh ENE 3.0 mph4.8 kmh 29.98 in1015.2 mb 0.00 in0.0 mm 0.00 in/hr0.0 mm/hr 0.03 in0.8 mm